createdAt,value
2018-12-02T00:00:22.306Z,18.27
2018-12-02T00:02:50.541Z,17.43
2018-12-02T00:05:18.771Z,17.87
2018-12-02T00:07:46.990Z,18.40
2018-12-02T00:10:16.317Z,18.50
2018-12-02T00:12:44.544Z,18.33
2018-12-02T00:15:14.917Z,15.70
2018-12-02T00:17:43.177Z,15.60
2018-12-02T00:20:13.389Z,15.87
2018-12-02T00:22:41.646Z,17.53
2018-12-02T00:25:15.779Z,16.30
2018-12-02T00:27:48.974Z,15.23
2018-12-02T00:30:19.109Z,14.73
2018-12-02T00:32:47.338Z,14.83
2018-12-02T00:35:16.497Z,14.70
2018-12-02T00:37:48.556Z,14.37
2018-12-02T00:40:18.541Z,15.90
2018-12-02T00:42:52.771Z,15.90
2018-12-02T00:45:22.048Z,16.03
2018-12-02T00:47:50.297Z,15.50
2018-12-02T00:50:19.081Z,15.43
2018-12-02T00:52:48.523Z,15.50
2018-12-02T00:55:19.878Z,15.60
2018-12-02T00:57:48.337Z,16.80
2018-12-02T01:00:16.908Z,15.07
2018-12-02T01:02:45.941Z,13.93
2018-12-02T01:05:17.196Z,14.23
2018-12-02T01:07:45.444Z,15.10
2018-12-02T01:10:19.494Z,15.67
2018-12-02T01:12:48.685Z,15.20
2018-12-02T01:15:17.949Z,15.10
2018-12-02T01:17:46.185Z,17.13
2018-12-02T01:20:15.426Z,14.43
2018-12-02T01:22:43.680Z,12.80
2018-12-02T01:25:12.697Z,14.83
2018-12-02T01:27:41.034Z,13.83
2018-12-02T01:30:11.604Z,14.33
2018-12-02T01:32:40.164Z,15.27
2018-12-02T01:35:09.812Z,14.57
2018-12-02T01:37:38.017Z,13.50
2018-12-02T01:40:07.998Z,13.37
2018-12-02T01:42:36.195Z,13.57
2018-12-02T01:45:05.762Z,12.57
2018-12-02T01:47:33.993Z,13.17
2018-12-02T01:50:02.149Z,13.07
2018-12-02T01:52:30.326Z,12.30
2018-12-02T01:54:58.520Z,13.07
2018-12-02T01:57:26.777Z,14.30
2018-12-02T01:59:54.945Z,11.47
2018-12-02T02:02:23.137Z,10.93
2018-12-02T02:04:51.292Z,11.40
2018-12-02T02:07:19.464Z,12.90
2018-12-02T02:09:47.668Z,12.07
2018-12-02T02:12:15.917Z,12.60
2018-12-02T02:14:44.101Z,12.07
2018-12-02T02:17:12.296Z,11.67
2018-12-02T02:19:40.589Z,12.27
2018-12-02T02:22:08.714Z,12.83
2018-12-02T02:24:36.905Z,12.33
2018-12-02T02:27:05.737Z,11.27
2018-12-02T02:29:33.953Z,11.23
2018-12-02T02:32:02.356Z,12.27
2018-12-02T02:34:30.841Z,12.53
2018-12-02T02:36:59.073Z,12.07
2018-12-02T02:39:27.315Z,11.53
2018-12-02T02:41:55.542Z,12.17
2018-12-02T02:44:23.767Z,11.67
2018-12-02T02:46:52.041Z,13.23
2018-12-02T02:49:20.261Z,11.63
2018-12-02T02:51:48.434Z,11.90
2018-12-02T02:54:16.630Z,11.53
2018-12-02T02:56:44.880Z,11.90
2018-12-02T02:59:13.049Z,12.50
2018-12-02T03:01:41.257Z,12.23
2018-12-02T03:04:09.497Z,11.37
2018-12-02T03:06:37.675Z,12.23
2018-12-02T03:09:07.876Z,11.40
2018-12-02T03:11:36.131Z,11.73
2018-12-02T03:14:04.345Z,11.83
2018-12-02T03:16:32.538Z,11.30
2018-12-02T03:19:00.688Z,11.33
2018-12-02T03:21:28.865Z,11.20
2018-12-02T03:23:57.074Z,11.00
2018-12-02T03:26:25.308Z,12.47
2018-12-02T03:28:53.493Z,11.50
2018-12-02T03:31:21.683Z,12.13
2018-12-02T03:33:49.934Z,12.17
2018-12-02T03:36:18.109Z,12.43
2018-12-02T03:38:46.313Z,11.87
2018-12-02T03:41:14.568Z,12.03
2018-12-02T03:43:42.730Z,11.40
2018-12-02T03:46:10.938Z,12.07
2018-12-02T03:48:39.183Z,11.97
2018-12-02T03:51:07.376Z,11.03
2018-12-02T03:53:35.552Z,11.37
2018-12-02T03:56:03.813Z,12.60
2018-12-02T03:58:32.038Z,11.30
2018-12-02T04:01:00.277Z,12.37
2018-12-02T04:03:28.433Z,11.67
2018-12-02T04:05:56.609Z,11.63
2018-12-02T04:08:26.574Z,11.70
2018-12-02T04:10:54.801Z,11.93
2018-12-02T04:13:22.973Z,11.00
2018-12-02T04:15:51.170Z,12.27
2018-12-02T04:18:19.421Z,11.77
2018-12-02T04:20:47.602Z,12.03
2018-12-02T04:23:15.794Z,11.10
2018-12-02T04:25:44.037Z,11.00
2018-12-02T04:28:12.201Z,10.17
2018-12-02T04:30:40.433Z,11.57
2018-12-02T04:33:08.669Z,10.80
2018-12-02T04:35:36.891Z,10.70
2018-12-02T04:38:05.166Z,11.50
2018-12-02T04:40:33.687Z,11.77
2018-12-02T04:43:01.869Z,10.43
2018-12-02T04:45:30.084Z,11.40
2018-12-02T04:47:58.378Z,10.83
2018-12-02T04:50:26.648Z,11.57
2018-12-02T04:52:55.860Z,11.30
2018-12-02T04:55:24.068Z,11.87
2018-12-02T04:57:52.233Z,11.23
2018-12-02T05:00:20.834Z,11.47
2018-12-02T05:02:49.981Z,10.53
2018-12-02T05:05:21.240Z,9.90
2018-12-02T05:07:49.449Z,10.00
2018-12-02T05:10:19.306Z,10.57
2018-12-02T05:12:47.869Z,10.67
2018-12-02T05:15:17.803Z,10.93
2018-12-02T05:17:45.975Z,9.10
2018-12-02T05:20:16.874Z,10.20
2018-12-02T05:22:45.035Z,10.40
2018-12-02T05:25:17.549Z,10.23
2018-12-02T05:27:42.873Z,10.13
2018-12-02T05:30:13.494Z,9.23
2018-12-02T05:32:41.749Z,9.70
2018-12-02T05:35:10.907Z,10.87
2018-12-02T05:37:39.086Z,10.23
2018-12-02T05:40:11.121Z,9.60
2018-12-02T05:42:39.413Z,10.00
2018-12-02T05:45:13.553Z,8.77
2018-12-02T05:47:41.737Z,7.90
2018-12-02T05:50:17.750Z,8.97
2018-12-02T05:52:47.230Z,7.57
2018-12-02T05:55:16.864Z,8.40
2018-12-02T05:57:45.061Z,6.93
2018-12-02T06:00:14.447Z,7.70
2018-12-02T06:02:42.688Z,7.17
2018-12-02T06:05:11.584Z,7.40
2018-12-02T06:07:39.855Z,7.40
2018-12-02T06:10:10.707Z,7.67
2018-12-02T06:12:38.900Z,7.10
2018-12-02T06:15:09.504Z,6.80
2018-12-02T06:17:37.777Z,6.53
2018-12-02T06:20:15.405Z,7.60
2018-12-02T06:22:43.842Z,6.80
2018-12-02T06:25:12.141Z,6.40
2018-12-02T06:27:40.333Z,5.77
2018-12-02T06:30:13.716Z,7.07
2018-12-02T06:32:41.905Z,6.57
2018-12-02T06:35:12.005Z,6.47
2018-12-02T06:37:40.226Z,6.07
2018-12-02T06:40:10.473Z,5.77
2018-12-02T06:42:38.685Z,5.73
2018-12-02T06:45:07.657Z,5.60
2018-12-02T06:47:35.854Z,5.73
2018-12-02T06:50:04.088Z,6.70
2018-12-02T06:52:32.332Z,5.57
2018-12-02T06:55:04.324Z,7.27
2018-12-02T06:57:37.526Z,9.23
2018-12-02T07:00:24.318Z,10.70
2018-12-02T07:04:04.984Z,10.73
2018-12-02T07:06:33.220Z,9.10
2018-12-02T07:09:01.397Z,8.00
2018-12-02T07:11:29.615Z,6.93
2018-12-02T07:13:57.841Z,6.90
2018-12-02T07:16:26.079Z,6.87
2018-12-02T07:18:57.059Z,6.20
2018-12-02T07:21:27.192Z,6.63
2018-12-02T07:23:57.561Z,7.13
2018-12-02T07:26:28.938Z,7.10
2018-12-02T07:28:57.140Z,7.17
2018-12-02T07:31:25.309Z,6.20
2018-12-02T07:33:53.490Z,7.70
2018-12-02T07:36:21.705Z,6.83
2018-12-02T07:40:29.311Z,7.43
2018-12-02T07:42:57.584Z,8.10
2018-12-02T07:45:25.797Z,8.40
2018-12-02T07:47:54.037Z,9.73
2018-12-02T07:50:22.294Z,9.33
2018-12-02T07:52:50.534Z,7.93
2018-12-02T07:55:18.789Z,7.37
2018-12-02T07:57:48.633Z,7.87
2018-12-02T08:00:17.202Z,6.53
2018-12-02T08:02:45.368Z,5.90
2018-12-02T08:05:14.736Z,7.10
2018-12-02T08:07:43.505Z,6.97
2018-12-02T08:10:15.753Z,6.37
2018-12-02T08:12:44.205Z,6.20
2018-12-02T08:15:14.378Z,5.17
2018-12-02T08:17:42.606Z,5.83
2018-12-02T08:20:14.616Z,5.67
2018-12-02T08:22:42.872Z,5.20
2018-12-02T08:25:15.260Z,6.30
2018-12-02T08:27:43.488Z,6.10
2018-12-02T08:30:14.685Z,5.23
2018-12-02T08:32:42.966Z,5.57
2018-12-02T08:35:12.073Z,4.97
2018-12-02T08:37:40.732Z,5.30
2018-12-02T08:40:10.984Z,4.97
2018-12-02T08:42:39.321Z,4.50
2018-12-02T08:45:22.645Z,4.57
2018-12-02T08:47:50.897Z,4.80
2018-12-02T08:50:21.479Z,3.90
2018-12-02T08:52:50.901Z,5.03
2018-12-02T08:55:19.869Z,3.90
2018-12-02T08:57:49.063Z,4.20
2018-12-02T09:00:20.234Z,4.10
2018-12-02T09:02:51.664Z,4.30
2018-12-02T09:05:19.888Z,4.80
2018-12-02T09:07:48.085Z,5.23
2018-12-02T09:10:18.666Z,5.50
2018-12-02T09:12:47.541Z,5.03
2018-12-02T09:15:15.740Z,6.00
2018-12-02T09:17:43.917Z,6.20
2018-12-02T09:20:14.606Z,4.23
2018-12-02T09:22:43.125Z,3.60
2018-12-02T09:25:11.301Z,3.83
2018-12-02T09:27:39.501Z,3.77
2018-12-02T09:30:16.821Z,3.47
2018-12-02T09:32:45.078Z,3.30
2018-12-02T09:35:13.304Z,3.50
2018-12-02T09:37:41.501Z,2.93
2018-12-02T09:40:13.421Z,2.97
2018-12-02T09:42:43.738Z,3.67
2018-12-02T09:45:15.317Z,4.23
2018-12-02T09:47:43.494Z,4.20
2018-12-02T09:50:13.520Z,3.40
2018-12-02T09:52:41.804Z,2.90
2018-12-02T09:55:13.426Z,2.90
2018-12-02T09:57:41.638Z,2.97
2018-12-02T10:00:12.018Z,3.40
2018-12-02T10:02:40.233Z,3.50
2018-12-02T10:05:08.521Z,3.00
2018-12-02T10:07:36.729Z,3.10
2018-12-02T10:10:22.876Z,3.27
2018-12-02T10:12:56.333Z,3.43
2018-12-02T10:15:24.556Z,2.73
2018-12-02T10:17:52.700Z,3.53
2018-12-02T10:20:20.886Z,3.30
2018-12-02T10:22:49.113Z,3.73
2018-12-02T10:25:18.121Z,3.53
2018-12-02T10:27:46.328Z,3.10
2018-12-02T10:30:16.621Z,2.70
2018-12-02T10:32:44.825Z,3.30
2018-12-02T10:35:13.005Z,2.80
2018-12-02T10:37:41.196Z,2.60
2018-12-02T10:40:19.469Z,2.10
2018-12-02T10:42:47.864Z,2.40
2018-12-02T10:45:19.099Z,2.63
2018-12-02T10:47:47.473Z,2.90
2018-12-02T10:50:22.906Z,2.60
2018-12-02T10:52:52.005Z,2.27
2018-12-02T10:55:24.129Z,2.50
2018-12-02T10:57:52.369Z,2.23
2018-12-02T11:00:25.756Z,2.87
2018-12-02T11:02:53.937Z,2.50
2018-12-02T11:05:22.103Z,2.87
2018-12-02T11:07:50.300Z,2.97
2018-12-02T11:10:18.461Z,2.30
2018-12-02T11:12:46.608Z,2.80
2018-12-02T11:15:15.673Z,2.30
2018-12-02T11:17:44.794Z,2.50
2018-12-02T11:20:14.165Z,2.50
2018-12-02T11:22:42.389Z,1.93
2018-12-02T11:25:11.864Z,2.37
2018-12-02T11:27:40.061Z,2.90
2018-12-02T11:30:14.885Z,2.80
2018-12-02T11:32:43.745Z,2.50
2018-12-02T11:35:15.111Z,2.70
2018-12-02T11:37:43.324Z,3.73
2018-12-02T11:40:13.580Z,3.70
2018-12-02T11:42:41.853Z,4.00
2018-12-02T11:45:11.545Z,3.87
2018-12-02T11:47:40.293Z,4.13
2018-12-02T11:50:11.041Z,3.73
2018-12-02T11:52:39.393Z,2.80
2018-12-02T11:55:08.701Z,2.43
2018-12-02T11:57:37.010Z,2.40
2018-12-02T12:00:14.994Z,2.67
2018-12-02T12:02:43.256Z,1.83
2018-12-02T12:05:12.961Z,3.10
2018-12-02T12:07:41.730Z,3.73
2018-12-02T12:10:12.245Z,2.77
2018-12-02T12:12:40.518Z,3.17
2018-12-02T12:15:11.094Z,2.40
2018-12-02T12:17:39.341Z,2.50
2018-12-02T12:20:13.368Z,3.30
2018-12-02T12:22:41.626Z,3.17
2018-12-02T12:25:10.325Z,2.83
2018-12-02T12:27:38.881Z,3.77
2018-12-02T12:30:09.950Z,3.60
2018-12-02T12:32:43.332Z,3.40
2018-12-02T12:35:13.605Z,3.40
2018-12-02T12:37:41.768Z,3.50
2018-12-02T12:40:12.288Z,3.33
2018-12-02T12:42:41.292Z,3.00
2018-12-02T12:45:11.045Z,5.87
2018-12-02T12:47:39.776Z,4.80
2018-12-02T12:50:12.130Z,3.60
2018-12-02T12:52:40.343Z,4.17
2018-12-02T12:55:11.688Z,4.07
2018-12-02T12:57:39.925Z,3.73
2018-12-02T13:00:12.513Z,3.73
2018-12-02T13:02:40.721Z,2.67
2018-12-02T13:05:10.589Z,3.30
2018-12-02T13:07:38.840Z,3.03
2018-12-02T13:10:11.217Z,3.00
2018-12-02T13:12:39.514Z,3.17
2018-12-02T13:15:10.364Z,3.83
2018-12-02T13:17:38.557Z,3.10
2018-12-02T13:20:24.945Z,3.40
2018-12-02T13:22:53.181Z,3.70
2018-12-02T13:25:21.416Z,5.43
2018-12-02T13:27:49.646Z,6.20
2018-12-02T13:30:19.002Z,5.47
2018-12-02T13:32:50.381Z,5.47
2018-12-02T13:35:18.679Z,4.63
2018-12-02T13:37:46.893Z,3.57
2018-12-02T13:40:19.141Z,3.30
2018-12-02T13:42:53.462Z,3.37
2018-12-02T13:45:23.161Z,3.13
2018-12-02T13:47:51.333Z,3.00
2018-12-02T13:50:20.081Z,3.50
2018-12-02T13:52:49.400Z,3.50
2018-12-02T13:55:18.880Z,2.53
2018-12-02T13:57:47.489Z,2.87
2018-12-02T14:00:17.921Z,2.37
2018-12-02T14:02:47.432Z,2.53
2018-12-02T14:05:15.721Z,2.70
2018-12-02T14:07:43.917Z,2.20
2018-12-02T14:10:13.908Z,2.23
2018-12-02T14:12:46.388Z,2.67
2018-12-02T14:15:26.959Z,2.80
2018-12-02T14:17:58.984Z,2.40
2018-12-02T14:20:27.256Z,2.43
2018-12-02T14:22:55.730Z,2.20
2018-12-02T14:25:23.986Z,1.70
2018-12-02T14:27:52.889Z,2.40
2018-12-02T14:30:21.593Z,2.30
2018-12-02T14:32:50.000Z,2.00
2018-12-02T14:35:18.376Z,1.53
2018-12-02T14:37:46.858Z,1.90
2018-12-02T14:40:15.296Z,1.80
2018-12-02T14:42:44.789Z,1.83
2018-12-02T14:45:14.425Z,1.80
2018-12-02T14:47:42.841Z,1.70
2018-12-02T14:50:15.490Z,1.83
2018-12-02T14:52:45.211Z,2.40
2018-12-02T14:55:15.837Z,2.30
2018-12-02T14:57:44.099Z,2.10
2018-12-02T15:00:17.273Z,2.67
2018-12-02T15:02:45.583Z,2.20
2018-12-02T15:05:14.129Z,2.00
2018-12-02T15:07:44.261Z,1.50
2018-12-02T15:10:15.013Z,1.70
2018-12-02T15:12:43.897Z,1.70
2018-12-02T15:15:14.105Z,1.90
2018-12-02T15:17:42.794Z,1.63
2018-12-02T15:20:13.445Z,1.70
2018-12-02T15:22:41.633Z,1.90
2018-12-02T15:25:11.188Z,1.70
2018-12-02T15:27:39.785Z,1.63
2018-12-02T15:30:12.276Z,1.60
2018-12-02T15:32:41.317Z,1.60
2018-12-02T15:35:10.234Z,2.10
2018-12-02T15:37:38.467Z,2.40
2018-12-02T15:40:09.469Z,3.33
2018-12-02T15:42:38.448Z,3.30
2018-12-02T15:45:10.328Z,5.47
2018-12-02T15:47:38.570Z,3.37
2018-12-02T15:50:13.741Z,3.50
2018-12-02T15:52:41.998Z,3.00
2018-12-02T15:55:12.531Z,3.53
2018-12-02T15:57:40.822Z,3.33
2018-12-02T16:00:14.094Z,3.57
2018-12-02T16:02:42.332Z,2.30
2018-12-02T16:05:10.489Z,2.13
2018-12-02T16:07:38.653Z,2.43
2018-12-02T16:10:08.976Z,1.47
2018-12-02T16:12:37.172Z,1.83
2018-12-02T16:15:11.465Z,2.40
2018-12-02T16:17:39.678Z,3.10
2018-12-02T16:20:10.869Z,2.37
2018-12-02T16:22:40.086Z,2.10
2018-12-02T16:25:08.421Z,1.70
2018-12-02T16:27:36.682Z,1.50
2018-12-02T16:30:11.026Z,1.57
2018-12-02T16:32:39.272Z,1.57
2018-12-02T16:35:09.010Z,1.40
2018-12-02T16:37:37.225Z,1.33
2018-12-02T16:40:08.458Z,1.43
2018-12-02T16:42:36.648Z,1.20
2018-12-02T16:45:06.528Z,1.90
2018-12-02T16:47:34.757Z,1.50
2018-12-02T16:50:03.472Z,1.80
2018-12-02T16:52:31.689Z,1.70
2018-12-02T16:54:59.889Z,1.33
2018-12-02T16:57:28.120Z,1.33
2018-12-02T16:59:56.320Z,1.70
2018-12-02T17:02:24.497Z,1.40
2018-12-02T17:04:52.690Z,1.63
2018-12-02T17:07:20.957Z,1.57
2018-12-02T17:09:49.141Z,1.20
2018-12-02T17:12:17.379Z,1.47
2018-12-02T17:14:45.582Z,1.80
2018-12-02T17:17:13.771Z,1.50
2018-12-02T17:19:42.044Z,1.33
2018-12-02T17:22:10.292Z,1.60
2018-12-02T17:24:38.464Z,1.70
2018-12-02T17:27:06.691Z,1.63
2018-12-02T17:29:34.920Z,2.00
2018-12-02T17:32:08.381Z,1.90
2018-12-02T17:34:36.770Z,1.73
2018-12-02T17:37:05.073Z,1.93
2018-12-02T17:39:34.985Z,1.70
2018-12-02T17:42:06.542Z,1.60
2018-12-02T17:44:34.720Z,1.50
2018-12-02T17:47:03.013Z,1.63
2018-12-02T17:49:31.233Z,1.33
2018-12-02T17:51:59.469Z,1.40
2018-12-02T17:54:27.745Z,1.50
2018-12-02T17:56:55.971Z,1.97
2018-12-02T17:59:24.297Z,1.50
2018-12-02T18:01:52.521Z,1.80
2018-12-02T18:04:20.745Z,1.70
2018-12-02T18:06:49.027Z,1.80
2018-12-02T18:09:17.236Z,2.00
2018-12-02T18:11:45.419Z,2.10
2018-12-02T18:14:13.613Z,1.73
2018-12-02T18:16:41.761Z,2.30
2018-12-02T18:19:09.938Z,1.57
2018-12-02T18:21:38.137Z,2.47
2018-12-02T18:24:06.509Z,1.97
2018-12-02T18:26:34.710Z,2.13
2018-12-02T18:29:02.974Z,2.30
2018-12-02T18:31:31.231Z,1.80
2018-12-02T18:33:59.429Z,1.67
2018-12-02T18:36:30.713Z,1.90
2018-12-02T18:38:58.937Z,1.90
2018-12-02T18:41:37.129Z,1.97
2018-12-02T18:44:07.096Z,1.70
2018-12-02T18:46:35.311Z,2.00
2018-12-02T18:49:03.533Z,2.10
2018-12-02T18:51:31.761Z,2.27
2018-12-02T18:53:59.935Z,2.27
2018-12-02T18:56:28.166Z,1.50
2018-12-02T18:58:56.416Z,2.17
2018-12-02T19:01:24.657Z,2.00
2018-12-02T19:03:52.892Z,2.20
2018-12-02T19:06:21.125Z,2.00
2018-12-02T19:08:49.284Z,1.67
2018-12-02T19:11:17.465Z,2.30
2018-12-02T19:13:45.631Z,2.80
2018-12-02T19:16:13.852Z,2.50
2018-12-02T19:18:43.125Z,1.50
2018-12-02T19:21:14.649Z,1.80
2018-12-02T19:23:42.850Z,2.00
2018-12-02T19:26:11.129Z,1.90
2018-12-02T19:28:39.386Z,1.80
2018-12-02T19:31:07.581Z,1.83
2018-12-02T19:33:35.829Z,1.70
2018-12-02T19:36:15.797Z,1.80
2018-12-02T19:38:43.985Z,1.70
2018-12-02T19:41:12.228Z,1.93
2018-12-02T19:43:40.484Z,1.90
2018-12-02T19:46:08.673Z,2.10
2018-12-02T19:48:36.911Z,2.33
2018-12-02T19:51:05.313Z,2.30
2018-12-02T19:53:33.505Z,2.40
2018-12-02T19:56:01.674Z,2.20
2018-12-02T19:58:29.877Z,2.03
2018-12-02T20:00:58.494Z,2.07
2018-12-02T20:03:26.307Z,2.30
2018-12-02T20:05:54.522Z,1.93
2018-12-02T20:08:22.776Z,2.10
2018-12-02T20:10:53.447Z,2.10
2018-12-02T20:13:22.457Z,2.00
2018-12-02T20:15:56.905Z,2.07
2018-12-02T20:18:25.181Z,2.07
2018-12-02T20:20:55.389Z,2.40
2018-12-02T20:23:29.514Z,2.10
2018-12-02T20:26:00.093Z,2.53
2018-12-02T20:28:35.058Z,2.00
2018-12-02T20:31:08.318Z,2.10
2018-12-02T20:33:36.571Z,2.10
2018-12-02T20:36:05.281Z,2.53
2018-12-02T20:38:33.490Z,2.10
2018-12-02T20:41:01.709Z,2.37
2018-12-02T20:43:30.052Z,2.40
2018-12-02T20:45:58.208Z,2.67
2018-12-02T20:48:26.405Z,2.77
2018-12-02T20:50:54.562Z,2.23
2018-12-02T20:53:22.838Z,2.47
2018-12-02T20:55:51.046Z,3.00
2018-12-02T20:58:19.284Z,2.30
2018-12-02T21:00:47.452Z,2.50
2018-12-02T21:03:18.282Z,2.53
2018-12-02T21:05:55.673Z,2.50
2018-12-02T21:08:23.937Z,2.37
2018-12-02T21:10:52.139Z,2.70
2018-12-02T21:13:20.416Z,2.50
2018-12-02T21:15:48.605Z,2.80
2018-12-02T21:18:16.805Z,2.80
2018-12-02T21:20:45.327Z,2.80
2018-12-02T21:23:13.599Z,2.57
2018-12-02T21:25:41.883Z,2.90
2018-12-02T21:28:11.049Z,2.63
2018-12-02T21:30:39.343Z,3.17
2018-12-02T21:33:07.524Z,3.30
2018-12-02T21:35:35.717Z,3.00
2018-12-02T21:38:03.906Z,2.60
2018-12-02T21:40:32.054Z,2.77
2018-12-02T21:43:00.257Z,2.50
2018-12-02T21:45:28.663Z,2.43
2018-12-02T21:47:57.033Z,2.63
2018-12-02T21:50:27.441Z,2.30
2018-12-02T21:52:56.494Z,2.77
2018-12-02T21:55:24.676Z,2.70
2018-12-02T21:57:52.849Z,2.70
2018-12-02T22:00:26.405Z,2.50
2018-12-02T22:02:54.709Z,2.70
2018-12-02T22:05:22.896Z,2.50
2018-12-02T22:07:51.920Z,2.70
2018-12-02T22:10:24.520Z,2.50
2018-12-02T22:12:52.995Z,3.07
2018-12-02T22:15:21.230Z,2.33
2018-12-02T22:17:49.426Z,2.80
2018-12-02T22:20:17.898Z,4.77
2018-12-02T22:22:46.110Z,3.63
2018-12-02T22:25:16.354Z,2.90
2018-12-02T22:27:46.785Z,2.37
2018-12-02T22:30:16.109Z,2.80
2018-12-02T22:32:44.356Z,2.57
2018-12-02T22:35:14.297Z,2.83
2018-12-02T22:37:42.924Z,3.27
2018-12-02T22:40:19.940Z,3.20
2018-12-02T22:42:48.131Z,2.83
2018-12-02T22:45:17.593Z,2.80
2018-12-02T22:47:45.840Z,2.90
2018-12-02T22:50:16.198Z,2.50
2018-12-02T22:52:45.349Z,2.60
2018-12-02T22:55:13.520Z,2.60
2018-12-02T22:57:41.875Z,3.20
2018-12-02T23:00:32.592Z,2.97
2018-12-02T23:03:05.884Z,2.93
2018-12-02T23:05:34.161Z,2.70
2018-12-02T23:08:02.447Z,2.50
2018-12-02T23:10:30.624Z,2.80
2018-12-02T23:12:58.846Z,2.97
2018-12-02T23:15:27.067Z,3.13
2018-12-02T23:17:55.312Z,3.03
2018-12-02T23:20:23.837Z,2.70
2018-12-02T23:22:52.030Z,2.60
2018-12-02T23:25:20.278Z,2.60
2018-12-02T23:27:48.444Z,2.60
2018-12-02T23:30:19.690Z,2.60
2018-12-02T23:32:47.888Z,2.80
2018-12-02T23:35:16.193Z,2.33
2018-12-02T23:37:44.423Z,3.17
2018-12-02T23:40:16.709Z,2.77
2018-12-02T23:42:45.064Z,3.00
2018-12-02T23:45:14.009Z,3.10
2018-12-02T23:47:42.258Z,3.00
2018-12-02T23:50:11.589Z,2.97
2018-12-02T23:52:39.808Z,2.70
2018-12-02T23:55:12.006Z,2.83
2018-12-02T23:57:40.257Z,3.30
